createdAt,value
2019-05-26T00:00:09.803Z,7.60
2019-05-26T00:02:39.623Z,7.50
2019-05-26T00:05:09.340Z,7.50
2019-05-26T00:07:38.862Z,7.50
2019-05-26T00:10:08.886Z,7.50
2019-05-26T00:12:38.311Z,7.50
2019-05-26T00:15:08.336Z,7.60
2019-05-26T00:17:37.787Z,7.70
2019-05-26T00:20:08.296Z,7.70
2019-05-26T00:22:37.756Z,7.60
2019-05-26T00:25:07.860Z,7.50
2019-05-26T00:27:37.461Z,7.40
2019-05-26T00:30:10.385Z,7.40
2019-05-26T00:32:39.904Z,7.40
2019-05-26T00:35:10.015Z,7.40
2019-05-26T00:37:49.221Z,7.30
2019-05-26T00:40:10.908Z,7.30
2019-05-26T00:42:40.359Z,7.30
2019-05-26T00:45:10.280Z,7.30
2019-05-26T00:47:39.828Z,7.30
2019-05-26T00:50:09.841Z,7.30
2019-05-26T00:52:39.349Z,7.30
2019-05-26T00:55:09.468Z,7.30
2019-05-26T00:57:38.996Z,7.30
2019-05-26T01:00:09.908Z,7.20
2019-05-26T01:02:39.568Z,7.20
2019-05-26T01:05:09.770Z,7.40
2019-05-26T01:07:39.213Z,7.40
2019-05-26T01:10:09.010Z,7.40
2019-05-26T01:12:39.190Z,7.60
2019-05-26T01:15:09.421Z,7.60
2019-05-26T01:17:38.877Z,7.70
2019-05-26T01:20:08.881Z,7.80
2019-05-26T01:22:38.336Z,7.90
2019-05-26T01:25:09.053Z,7.90
2019-05-26T01:27:38.513Z,8.00
2019-05-26T01:30:08.616Z,8.10
2019-05-26T01:32:38.140Z,8.20
2019-05-26T01:35:08.424Z,8.50
2019-05-26T01:37:39.719Z,8.90
2019-05-26T01:40:10.707Z,9.20
2019-05-26T01:42:40.187Z,9.40
2019-05-26T01:45:09.877Z,9.60
2019-05-26T01:47:39.349Z,9.70
2019-05-26T01:50:09.151Z,9.70
2019-05-26T01:52:38.619Z,9.70
2019-05-26T01:55:08.803Z,9.80
2019-05-26T01:57:38.343Z,9.90
2019-05-26T02:00:08.142Z,9.80
2019-05-26T02:02:37.991Z,9.80
2019-05-26T02:05:07.622Z,9.70
2019-05-26T02:07:37.093Z,9.50
2019-05-26T02:10:07.280Z,9.30
2019-05-26T02:12:36.755Z,9.20
2019-05-26T02:15:07.907Z,9.30
2019-05-26T02:17:37.380Z,9.30
2019-05-26T02:20:07.676Z,9.20
2019-05-26T02:22:37.158Z,9.20
2019-05-26T02:25:09.123Z,9.20
2019-05-26T02:27:38.588Z,9.30
2019-05-26T02:30:10.155Z,9.30
2019-05-26T02:32:39.705Z,9.40
2019-05-26T02:35:09.784Z,9.40
2019-05-26T02:37:39.339Z,9.40
2019-05-26T02:40:10.225Z,9.50
2019-05-26T02:42:39.978Z,9.60
2019-05-26T02:45:12.565Z,9.50
2019-05-26T02:47:42.154Z,9.60
2019-05-26T02:50:12.337Z,9.70
2019-05-26T02:52:41.884Z,9.70
2019-05-26T02:55:11.546Z,9.60
2019-05-26T02:57:41.018Z,9.70
2019-05-26T03:00:12.094Z,9.70
2019-05-26T03:02:41.639Z,9.70
2019-05-26T03:05:12.006Z,9.70
2019-05-26T03:07:43.483Z,9.60
2019-05-26T03:10:14.758Z,9.60
2019-05-26T03:12:46.022Z,9.60
2019-05-26T03:15:18.104Z,9.60
2019-05-26T03:17:49.878Z,9.60
2019-05-26T03:20:19.557Z,9.60
2019-05-26T03:22:55.025Z,9.60
2019-05-26T03:25:24.461Z,9.60
2019-05-26T03:27:53.929Z,9.60
2019-05-26T03:30:23.366Z,9.70
2019-05-26T03:32:52.843Z,9.70
2019-05-26T03:35:22.300Z,9.80
2019-05-26T03:37:51.756Z,9.80
2019-05-26T03:40:21.206Z,9.90
2019-05-26T03:42:50.689Z,9.90
2019-05-26T03:45:38.236Z,9.90
2019-05-26T03:48:07.712Z,10.00
2019-05-26T03:50:37.167Z,10.10
2019-05-26T03:53:06.791Z,10.10
2019-05-26T03:55:36.198Z,10.20
2019-05-26T03:58:05.676Z,10.20
2019-05-26T04:00:35.109Z,10.30
2019-05-26T04:03:04.587Z,10.40
2019-05-26T04:05:34.021Z,10.40
2019-05-26T04:08:05.354Z,10.50
2019-05-26T04:10:34.561Z,10.50
2019-05-26T04:13:04.033Z,10.60
2019-05-26T04:15:33.486Z,10.60
2019-05-26T04:18:02.981Z,10.60
2019-05-26T04:20:32.405Z,10.60
2019-05-26T04:23:01.888Z,10.70
2019-05-26T04:25:31.350Z,10.70
2019-05-26T04:28:00.824Z,10.70
2019-05-26T04:30:30.257Z,10.70
2019-05-26T04:32:59.728Z,10.80
2019-05-26T04:35:29.169Z,10.80
2019-05-26T04:37:58.642Z,10.90
2019-05-26T04:40:28.383Z,10.90
2019-05-26T04:42:57.956Z,10.90
2019-05-26T04:45:27.419Z,10.90
2019-05-26T04:47:56.894Z,11.00
2019-05-26T04:50:26.338Z,11.10
2019-05-26T04:53:06.118Z,11.10
2019-05-26T04:55:26.932Z,11.20
2019-05-26T04:57:56.389Z,11.30
2019-05-26T05:00:25.830Z,11.40
2019-05-26T05:02:55.291Z,11.50
2019-05-26T05:05:24.737Z,11.50
2019-05-26T05:07:54.213Z,11.50
2019-05-26T05:10:23.825Z,11.60
2019-05-26T05:12:53.294Z,11.70
2019-05-26T05:15:22.735Z,11.80
2019-05-26T05:17:52.199Z,11.90
2019-05-26T05:20:21.645Z,11.90
2019-05-26T05:22:51.118Z,12.00
2019-05-26T05:25:20.565Z,12.10
2019-05-26T05:27:50.043Z,12.20
2019-05-26T05:30:20.125Z,12.20
2019-05-26T05:32:49.619Z,12.20
2019-05-26T05:35:19.280Z,12.20
2019-05-26T05:37:48.762Z,12.30
2019-05-26T05:40:18.454Z,12.40
2019-05-26T05:42:47.956Z,12.40
2019-05-26T05:45:18.333Z,12.40
2019-05-26T05:47:47.837Z,12.50
2019-05-26T05:50:19.173Z,12.50
2019-05-26T05:52:48.622Z,12.50
2019-05-26T05:55:18.371Z,12.50
2019-05-26T05:57:47.801Z,12.50
2019-05-26T06:00:17.402Z,12.50
2019-05-26T06:02:46.863Z,12.60
2019-05-26T06:05:16.408Z,12.60
2019-05-26T06:07:45.860Z,12.70
2019-05-26T06:10:15.663Z,12.70
2019-05-26T06:12:45.113Z,12.70
2019-05-26T06:15:16.351Z,12.70
2019-05-26T06:17:45.798Z,12.70
2019-05-26T06:20:16.639Z,12.80
2019-05-26T06:22:46.065Z,12.90
2019-05-26T06:25:16.583Z,13.10
2019-05-26T06:27:46.102Z,13.20
2019-05-26T06:30:16.981Z,13.40
2019-05-26T06:32:46.427Z,13.40
2019-05-26T06:35:16.029Z,13.40
2019-05-26T06:37:45.514Z,13.60
2019-05-26T06:40:15.034Z,13.80
2019-05-26T06:42:44.484Z,13.80
2019-05-26T06:45:14.407Z,13.90
2019-05-26T06:47:43.858Z,14.10
2019-05-26T06:50:14.061Z,14.30
2019-05-26T06:52:43.505Z,14.30
2019-05-26T06:55:13.208Z,14.50
2019-05-26T06:57:42.653Z,14.40
2019-05-26T07:00:12.562Z,14.50
2019-05-26T07:02:42.007Z,14.70
2019-05-26T07:05:11.555Z,14.70
2019-05-26T07:07:40.997Z,14.80
2019-05-26T07:10:10.596Z,14.90
2019-05-26T07:12:40.041Z,14.90
2019-05-26T07:15:11.353Z,14.90
2019-05-26T07:17:40.796Z,15.00
2019-05-26T07:20:10.500Z,15.10
2019-05-26T07:22:39.950Z,15.00
2019-05-26T07:25:09.566Z,14.90
2019-05-26T07:27:39.018Z,14.80
2019-05-26T07:30:10.425Z,14.80
2019-05-26T07:32:39.881Z,14.80
2019-05-26T07:35:09.589Z,14.80
2019-05-26T07:37:39.037Z,14.80
2019-05-26T07:40:08.770Z,15.00
2019-05-26T07:42:38.290Z,15.10
2019-05-26T07:45:08.299Z,15.20
2019-05-26T07:47:37.746Z,15.30
2019-05-26T07:50:08.559Z,15.40
2019-05-26T07:52:38.017Z,15.60
2019-05-26T07:55:07.559Z,15.60
2019-05-26T07:57:37.182Z,15.80
2019-05-26T08:00:07.870Z,15.90
2019-05-26T08:02:37.314Z,16.00
2019-05-26T08:05:07.669Z,16.10
2019-05-26T08:07:37.076Z,16.40
2019-05-26T08:10:07.391Z,16.80
2019-05-26T08:12:36.834Z,16.80
2019-05-26T08:15:06.846Z,16.80
2019-05-26T08:17:36.293Z,17.00
2019-05-26T08:20:09.879Z,17.10
2019-05-26T08:22:39.330Z,17.20
2019-05-26T08:25:09.045Z,17.20
2019-05-26T08:27:38.499Z,17.40
2019-05-26T08:30:10.317Z,17.50
2019-05-26T08:32:39.768Z,17.50
2019-05-26T08:35:10.277Z,17.40
2019-05-26T08:37:39.724Z,17.20
2019-05-26T08:40:18.321Z,17.30
2019-05-26T08:42:51.906Z,17.20
2019-05-26T08:45:22.779Z,17.30
2019-05-26T08:47:52.775Z,17.10
2019-05-26T08:50:22.959Z,17.10
2019-05-26T08:52:52.533Z,17.00
2019-05-26T08:55:22.077Z,17.00
2019-05-26T08:57:51.522Z,17.10
2019-05-26T09:00:21.534Z,17.00
2019-05-26T09:02:50.981Z,17.20
2019-05-26T09:05:21.094Z,17.40
2019-05-26T09:07:50.619Z,17.40
2019-05-26T09:10:20.321Z,17.50
2019-05-26T09:13:00.306Z,17.90
2019-05-26T09:15:21.937Z,18.10
2019-05-26T09:17:51.393Z,18.10
2019-05-26T09:20:22.411Z,17.90
2019-05-26T09:22:51.852Z,17.60
2019-05-26T09:25:21.330Z,17.40
2019-05-26T09:27:50.786Z,17.70
2019-05-26T09:30:20.624Z,17.80
2019-05-26T09:32:50.089Z,17.60
2019-05-26T09:35:19.557Z,17.60
2019-05-26T09:37:49.013Z,17.70
2019-05-26T09:40:19.526Z,18.00
2019-05-26T09:42:49.053Z,17.90
2019-05-26T09:45:18.921Z,17.90
2019-05-26T09:47:48.506Z,17.80
2019-05-26T09:50:18.111Z,18.00
2019-05-26T09:52:47.665Z,18.20
2019-05-26T09:55:17.446Z,18.40
2019-05-26T09:57:46.986Z,18.40
2019-05-26T10:00:17.293Z,18.50
2019-05-26T10:02:47.213Z,18.60
2019-05-26T10:05:16.921Z,18.50
2019-05-26T10:07:46.889Z,18.70
2019-05-26T10:10:17.429Z,19.30
2019-05-26T10:12:47.074Z,19.30
2019-05-26T10:15:16.760Z,19.30
2019-05-26T10:17:46.236Z,19.60
2019-05-26T10:20:16.089Z,19.90
2019-05-26T10:22:45.552Z,19.60
2019-05-26T10:25:15.844Z,19.70
2019-05-26T10:27:45.308Z,19.80
2019-05-26T10:30:15.703Z,19.70
2019-05-26T10:32:45.391Z,19.40
2019-05-26T10:35:15.577Z,19.60
2019-05-26T10:37:45.049Z,20.00
2019-05-26T10:40:15.546Z,19.90
2019-05-26T10:42:45.438Z,20.40
2019-05-26T10:45:15.081Z,21.20
2019-05-26T10:47:44.563Z,20.90
2019-05-26T10:50:16.049Z,21.10
2019-05-26T10:52:45.509Z,21.30
2019-05-26T10:55:15.098Z,21.00
2019-05-26T10:57:44.581Z,21.10
2019-05-26T11:00:15.468Z,21.10
2019-05-26T11:02:45.005Z,21.40
2019-05-26T11:05:14.594Z,21.30
2019-05-26T11:07:44.063Z,21.60
2019-05-26T11:10:14.240Z,21.60
2019-05-26T11:12:43.718Z,21.00
2019-05-26T11:15:13.797Z,21.30
2019-05-26T11:17:43.330Z,21.80
2019-05-26T11:20:13.512Z,21.00
2019-05-26T11:22:42.977Z,20.60
2019-05-26T11:25:12.586Z,20.30
2019-05-26T11:27:42.045Z,20.90
2019-05-26T11:30:13.025Z,21.00
2019-05-26T11:32:42.484Z,20.90
2019-05-26T11:35:12.674Z,20.60
2019-05-26T11:37:42.138Z,20.50
2019-05-26T11:40:11.718Z,21.10
2019-05-26T11:42:44.651Z,20.90
2019-05-26T11:45:12.494Z,20.70
2019-05-26T11:47:41.966Z,20.40
2019-05-26T11:50:12.042Z,20.60
2019-05-26T11:52:41.509Z,21.20
2019-05-26T11:55:12.194Z,21.70
2019-05-26T11:57:41.669Z,21.50
2019-05-26T12:00:14.341Z,21.70
2019-05-26T12:02:45.246Z,22.00
2019-05-26T12:05:17.514Z,21.50
2019-05-26T12:07:46.117Z,20.90
2019-05-26T12:10:16.107Z,20.70
2019-05-26T12:12:45.586Z,20.60
2019-05-26T12:15:16.364Z,20.80
2019-05-26T12:17:45.905Z,21.80
2019-05-26T12:20:15.615Z,22.40
2019-05-26T12:22:45.081Z,22.10
2019-05-26T12:25:14.866Z,22.10
2019-05-26T12:27:44.344Z,22.30
2019-05-26T12:30:16.568Z,22.40
2019-05-26T12:32:47.129Z,22.30
2019-05-26T12:35:16.810Z,22.30
2019-05-26T12:37:48.241Z,22.40
2019-05-26T12:40:17.981Z,22.60
2019-05-26T12:42:47.524Z,22.60
2019-05-26T12:45:18.005Z,22.90
2019-05-26T12:47:47.539Z,22.70
2019-05-26T12:50:17.049Z,22.30
2019-05-26T12:52:46.517Z,22.00
2019-05-26T12:55:16.207Z,21.80
2019-05-26T12:57:46.783Z,21.80
2019-05-26T13:00:16.666Z,21.70
2019-05-26T13:02:47.136Z,21.90
2019-05-26T13:05:17.504Z,22.20
2019-05-26T13:07:47.079Z,22.40
2019-05-26T13:10:16.925Z,22.20
2019-05-26T13:12:46.397Z,22.20
2019-05-26T13:15:16.284Z,21.90
2019-05-26T13:17:45.741Z,22.20
2019-05-26T13:20:15.634Z,22.20
2019-05-26T13:22:46.066Z,22.30
2019-05-26T13:25:16.444Z,22.10
2019-05-26T13:27:45.919Z,21.90
2019-05-26T13:30:24.069Z,21.80
2019-05-26T13:32:53.542Z,21.80
2019-05-26T13:35:23.064Z,22.00
2019-05-26T13:37:52.657Z,21.70
2019-05-26T13:40:22.245Z,21.60
2019-05-26T13:42:52.186Z,21.40
2019-05-26T13:45:23.327Z,21.50
2019-05-26T13:47:52.936Z,21.60
2019-05-26T13:50:22.626Z,21.80
2019-05-26T13:52:52.095Z,22.30
2019-05-26T13:55:21.774Z,22.40
2019-05-26T13:57:51.239Z,22.20
2019-05-26T14:00:21.325Z,22.20
2019-05-26T14:02:50.934Z,22.20
2019-05-26T14:05:21.414Z,22.20
2019-05-26T14:07:50.941Z,22.50
2019-05-26T14:10:34.529Z,22.30
2019-05-26T14:13:05.029Z,21.90
2019-05-26T14:15:38.795Z,22.20
2019-05-26T14:18:06.939Z,21.90
2019-05-26T14:20:38.116Z,22.10
2019-05-26T14:23:08.532Z,22.40
2019-05-26T14:25:38.207Z,22.20
2019-05-26T14:28:08.228Z,22.30
2019-05-26T14:30:37.821Z,22.30
2019-05-26T14:33:07.281Z,22.90
2019-05-26T14:35:36.724Z,22.10
2019-05-26T14:38:06.260Z,21.60
2019-05-26T14:40:35.999Z,21.60
2019-05-26T14:43:05.965Z,21.50
2019-05-26T14:45:35.926Z,21.50
2019-05-26T14:48:06.314Z,21.40
2019-05-26T14:50:35.774Z,21.50
2019-05-26T14:53:05.218Z,21.30
2019-05-26T14:55:34.748Z,21.10
2019-05-26T14:58:14.965Z,21.10
2019-05-26T15:00:35.526Z,21.20
2019-05-26T15:03:05.033Z,21.20
2019-05-26T15:05:34.502Z,21.20
2019-05-26T15:08:03.942Z,21.40
2019-05-26T15:10:33.404Z,21.40
2019-05-26T15:13:02.858Z,21.30
2019-05-26T15:15:35.005Z,21.00
2019-05-26T15:18:03.377Z,21.00
2019-05-26T15:20:32.850Z,20.80
2019-05-26T15:23:02.298Z,20.60
2019-05-26T15:25:31.771Z,20.50
2019-05-26T15:28:01.211Z,20.10
2019-05-26T15:30:30.740Z,20.20
2019-05-26T15:33:00.185Z,20.20
2019-05-26T15:35:29.649Z,20.30
2019-05-26T15:37:59.098Z,20.50
2019-05-26T15:40:28.566Z,20.70
2019-05-26T15:42:58.004Z,21.00
2019-05-26T15:45:27.478Z,21.10
2019-05-26T15:47:57.185Z,20.80
2019-05-26T15:50:26.645Z,21.00
2019-05-26T15:52:56.081Z,20.90
2019-05-26T15:55:25.607Z,20.90
2019-05-26T15:57:55.158Z,21.00
2019-05-26T16:00:26.868Z,21.10
2019-05-26T16:02:56.309Z,21.10
2019-05-26T16:05:25.789Z,21.10
2019-05-26T16:07:55.209Z,21.00
2019-05-26T16:10:24.672Z,21.00
2019-05-26T16:12:54.127Z,21.00
2019-05-26T16:15:23.601Z,21.10
2019-05-26T16:17:53.040Z,21.20
2019-05-26T16:20:23.568Z,21.20
2019-05-26T16:22:53.016Z,21.20
2019-05-26T16:25:22.477Z,21.00
2019-05-26T16:27:51.988Z,20.80
2019-05-26T16:30:21.521Z,20.60
2019-05-26T16:32:50.961Z,20.40
2019-05-26T16:35:20.440Z,20.30
2019-05-26T16:37:49.873Z,20.30
2019-05-26T16:40:19.337Z,20.20
2019-05-26T16:42:48.821Z,20.20
2019-05-26T16:45:19.315Z,20.10
2019-05-26T16:47:48.745Z,20.00
2019-05-26T16:50:18.352Z,20.00
2019-05-26T16:52:47.731Z,20.00
2019-05-26T16:55:17.187Z,20.10
2019-05-26T16:57:46.634Z,20.00
2019-05-26T17:00:16.333Z,20.00
2019-05-26T17:02:45.778Z,19.90
2019-05-26T17:05:15.312Z,19.90
2019-05-26T17:07:44.753Z,20.00
2019-05-26T17:10:14.460Z,19.90
2019-05-26T17:12:43.905Z,19.90
2019-05-26T17:15:13.719Z,19.90
2019-05-26T17:17:43.727Z,19.90
2019-05-26T17:20:13.413Z,20.00
2019-05-26T17:22:42.874Z,20.10
2019-05-26T17:25:14.145Z,20.10
2019-05-26T17:27:43.598Z,20.00
2019-05-26T17:30:13.300Z,20.00
2019-05-26T17:32:42.736Z,20.10
2019-05-26T17:35:12.442Z,20.00
2019-05-26T17:37:41.886Z,20.00
2019-05-26T17:40:11.429Z,19.90
2019-05-26T17:42:40.872Z,19.90
2019-05-26T17:45:10.478Z,19.80
2019-05-26T17:47:39.921Z,19.80
2019-05-26T17:50:09.935Z,19.80
2019-05-26T17:52:39.367Z,19.80
2019-05-26T17:55:10.717Z,19.70
2019-05-26T17:57:40.201Z,19.60
2019-05-26T18:00:12.245Z,19.60
2019-05-26T18:02:41.740Z,19.50
2019-05-26T18:05:12.514Z,19.50
2019-05-26T18:07:42.017Z,19.60
2019-05-26T18:10:11.635Z,19.50
2019-05-26T18:12:41.081Z,19.40
2019-05-26T18:15:11.193Z,19.50
2019-05-26T18:17:47.027Z,19.50
2019-05-26T18:20:13.644Z,19.50
2019-05-26T18:22:43.419Z,19.50
2019-05-26T18:25:13.162Z,19.50
2019-05-26T18:27:43.603Z,19.50
2019-05-26T18:30:13.481Z,19.50
2019-05-26T18:32:43.921Z,19.50
2019-05-26T18:35:13.431Z,19.50
2019-05-26T18:37:42.893Z,19.40
2019-05-26T18:40:12.780Z,19.40
2019-05-26T18:42:42.240Z,19.40
2019-05-26T18:45:13.105Z,19.40
2019-05-26T18:47:42.745Z,19.40
2019-05-26T18:50:12.500Z,19.30
2019-05-26T18:52:41.962Z,19.30
2019-05-26T18:55:11.641Z,19.20
2019-05-26T18:57:41.187Z,19.20
2019-05-26T19:00:11.324Z,19.20
2019-05-26T19:02:40.877Z,19.20
2019-05-26T19:05:10.446Z,19.10
2019-05-26T19:07:39.977Z,19.10
2019-05-26T19:10:10.351Z,19.00
2019-05-26T19:12:39.886Z,19.00
2019-05-26T19:15:10.233Z,19.00
2019-05-26T19:17:39.866Z,19.00
2019-05-26T19:20:16.541Z,18.90
2019-05-26T19:22:42.416Z,18.90
2019-05-26T19:25:12.192Z,18.80
2019-05-26T19:27:41.657Z,18.80
2019-05-26T19:30:12.443Z,18.80
2019-05-26T19:32:41.912Z,18.70
2019-05-26T19:35:12.624Z,18.80
2019-05-26T19:37:42.233Z,18.70
2019-05-26T19:40:12.322Z,18.70
2019-05-26T19:42:41.794Z,18.70
2019-05-26T19:45:11.447Z,18.60
2019-05-26T19:47:40.906Z,18.50
2019-05-26T19:50:10.692Z,18.50
2019-05-26T19:52:40.190Z,18.60
2019-05-26T19:55:10.263Z,18.60
2019-05-26T19:57:39.798Z,18.60
2019-05-26T20:00:12.690Z,18.50
2019-05-26T20:02:42.221Z,18.50
2019-05-26T20:05:12.108Z,18.40
2019-05-26T20:07:41.562Z,18.30
2019-05-26T20:10:11.510Z,18.20
2019-05-26T20:12:40.972Z,18.10
2019-05-26T20:15:12.657Z,18.00
2019-05-26T20:17:42.187Z,17.90
2019-05-26T20:20:12.847Z,17.80
2019-05-26T20:22:42.408Z,17.70
2019-05-26T20:25:12.179Z,17.70
2019-05-26T20:27:41.683Z,17.70
2019-05-26T20:30:11.639Z,17.70
2019-05-26T20:32:41.110Z,17.60
2019-05-26T20:35:11.897Z,17.70
2019-05-26T20:37:41.362Z,17.70
2019-05-26T20:40:11.454Z,17.60
2019-05-26T20:42:40.942Z,17.60
2019-05-26T20:45:10.673Z,17.60
2019-05-26T20:47:40.096Z,17.60
2019-05-26T20:50:10.191Z,17.60
2019-05-26T20:52:39.648Z,17.60
2019-05-26T20:55:09.708Z,17.60
2019-05-26T20:57:39.171Z,17.60
2019-05-26T21:00:11.354Z,17.70
2019-05-26T21:02:41.591Z,17.70
2019-05-26T21:05:12.342Z,17.70
2019-05-26T21:07:41.805Z,17.70
2019-05-26T21:10:11.643Z,17.70
2019-05-26T21:12:41.062Z,17.70
2019-05-26T21:15:12.913Z,17.80
2019-05-26T21:17:43.350Z,17.70
2019-05-26T21:20:13.429Z,17.80
2019-05-26T21:22:42.905Z,17.80
2019-05-26T21:25:12.785Z,17.70
2019-05-26T21:27:42.377Z,17.70
2019-05-26T21:30:12.097Z,17.60
2019-05-26T21:32:41.596Z,17.60
2019-05-26T21:35:11.081Z,17.50
2019-05-26T21:37:40.554Z,17.40
2019-05-26T21:40:10.441Z,17.40
2019-05-26T21:42:39.968Z,17.40
2019-05-26T21:45:10.955Z,17.50
2019-05-26T21:47:40.422Z,17.50
2019-05-26T21:50:10.513Z,17.50
2019-05-26T21:52:39.989Z,17.50
2019-05-26T21:55:09.569Z,17.50
2019-05-26T21:57:39.034Z,17.60
2019-05-26T22:00:12.063Z,17.50
2019-05-26T22:02:43.141Z,17.50
2019-05-26T22:05:12.834Z,17.50
2019-05-26T22:07:42.317Z,17.50
2019-05-26T22:10:11.984Z,17.50
2019-05-26T22:12:41.445Z,17.50
2019-05-26T22:15:11.545Z,17.40
2019-05-26T22:17:40.998Z,17.50
2019-05-26T22:20:11.564Z,17.40
2019-05-26T22:22:41.001Z,17.40
2019-05-26T22:25:10.537Z,17.40
2019-05-26T22:27:39.986Z,17.40
2019-05-26T22:30:10.284Z,17.40
2019-05-26T22:32:40.201Z,17.40
2019-05-26T22:35:09.819Z,17.40
2019-05-26T22:37:39.265Z,17.40
2019-05-26T22:40:09.065Z,17.30
2019-05-26T22:42:39.092Z,17.40
2019-05-26T22:45:09.398Z,17.30
2019-05-26T22:47:38.847Z,17.30
2019-05-26T22:50:09.148Z,17.30
2019-05-26T22:52:38.595Z,17.30
2019-05-26T22:55:08.370Z,17.20
2019-05-26T22:57:37.782Z,17.20
2019-05-26T23:00:08.965Z,17.20
2019-05-26T23:02:38.541Z,17.10
2019-05-26T23:05:08.392Z,17.00
2019-05-26T23:07:37.893Z,17.00
2019-05-26T23:10:09.197Z,16.90
2019-05-26T23:12:38.641Z,16.90
2019-05-26T23:15:09.445Z,16.80
2019-05-26T23:17:38.957Z,16.80
2019-05-26T23:20:08.987Z,16.70
2019-05-26T23:22:38.412Z,16.70
2019-05-26T23:25:08.331Z,16.70
2019-05-26T23:27:37.778Z,16.60
2019-05-26T23:30:08.282Z,16.70
2019-05-26T23:32:37.725Z,16.60
2019-05-26T23:35:08.528Z,16.50
2019-05-26T23:37:38.046Z,16.50
2019-05-26T23:40:07.643Z,16.50
2019-05-26T23:42:37.085Z,16.50
2019-05-26T23:45:07.490Z,16.50
2019-05-26T23:47:36.933Z,16.50
2019-05-26T23:50:07.148Z,16.50
2019-05-26T23:52:36.657Z,16.40
2019-05-26T23:55:07.166Z,16.40
2019-05-26T23:57:36.606Z,16.40
